sensor_id;sensor_type;location;lat;lon;timestamp;P1;durP1;ratioP1;P2;durP2;ratioP2
44476;SDS011;30180;44.788;10.366;2022-07-24T00:00:39;6.15;;;4.80;;
44476;SDS011;30180;44.788;10.366;2022-07-24T00:03:07;5.78;;;4.47;;
44476;SDS011;30180;44.788;10.366;2022-07-24T00:05:36;8.82;;;5.00;;
44476;SDS011;30180;44.788;10.366;2022-07-24T00:08:04;9.50;;;5.30;;
44476;SDS011;30180;44.788;10.366;2022-07-24T00:10:32;8.02;;;5.15;;
44476;SDS011;30180;44.788;10.366;2022-07-24T00:13:01;8.13;;;5.00;;
44476;SDS011;30180;44.788;10.366;2022-07-24T00:15:31;7.55;;;5.15;;
44476;SDS011;30180;44.788;10.366;2022-07-24T00:17:59;8.30;;;5.20;;
44476;SDS011;30180;44.788;10.366;2022-07-24T00:20:27;7.40;;;4.72;;
44476;SDS011;30180;44.788;10.366;2022-07-24T00:22:56;5.85;;;4.80;;
44476;SDS011;30180;44.788;10.366;2022-07-24T00:25:24;7.25;;;4.97;;
44476;SDS011;30180;44.788;10.366;2022-07-24T00:27:52;6.00;;;4.78;;
44476;SDS011;30180;44.788;10.366;2022-07-24T00:30:21;5.55;;;4.70;;
44476;SDS011;30180;44.788;10.366;2022-07-24T00:32:50;7.50;;;5.18;;
44476;SDS011;30180;44.788;10.366;2022-07-24T00:35:19;10.53;;;5.17;;
44476;SDS011;30180;44.788;10.366;2022-07-24T00:37:47;6.50;;;4.85;;
44476;SDS011;30180;44.788;10.366;2022-07-24T00:40:15;6.85;;;5.30;;
44476;SDS011;30180;44.788;10.366;2022-07-24T00:42:44;7.53;;;4.90;;
44476;SDS011;30180;44.788;10.366;2022-07-24T00:45:12;6.63;;;4.90;;
44476;SDS011;30180;44.788;10.366;2022-07-24T00:47:52;9.93;;;5.47;;
44476;SDS011;30180;44.788;10.366;2022-07-24T00:50:24;7.00;;;5.38;;
44476;SDS011;30180;44.788;10.366;2022-07-24T00:52:52;7.40;;;5.50;;
44476;SDS011;30180;44.788;10.366;2022-07-24T00:55:22;7.80;;;5.25;;
44476;SDS011;30180;44.788;10.366;2022-07-24T00:57:50;7.45;;;5.00;;
44476;SDS011;30180;44.788;10.366;2022-07-24T01:00:19;7.93;;;5.35;;
44476;SDS011;30180;44.788;10.366;2022-07-24T01:02:48;8.45;;;5.35;;
44476;SDS011;30180;44.788;10.366;2022-07-24T01:05:18;6.57;;;5.38;;
44476;SDS011;30180;44.788;10.366;2022-07-24T01:07:47;5.85;;;4.80;;
44476;SDS011;30180;44.788;10.366;2022-07-24T01:10:15;7.45;;;5.03;;
44476;SDS011;30180;44.788;10.366;2022-07-24T01:12:44;7.70;;;5.13;;
44476;SDS011;30180;44.788;10.366;2022-07-24T01:15:12;7.47;;;4.90;;
44476;SDS011;30180;44.788;10.366;2022-07-24T01:17:41;7.25;;;5.30;;
44476;SDS011;30180;44.788;10.366;2022-07-24T01:20:10;7.45;;;5.72;;
44476;SDS011;30180;44.788;10.366;2022-07-24T01:22:40;6.78;;;4.82;;
44476;SDS011;30180;44.788;10.366;2022-07-24T01:25:08;8.80;;;5.13;;
44476;SDS011;30180;44.788;10.366;2022-07-24T01:27:38;7.85;;;5.15;;
44476;SDS011;30180;44.788;10.366;2022-07-24T01:30:07;6.90;;;4.97;;
44476;SDS011;30180;44.788;10.366;2022-07-24T01:32:36;7.60;;;5.77;;
44476;SDS011;30180;44.788;10.366;2022-07-24T01:35:05;9.43;;;5.80;;
44476;SDS011;30180;44.788;10.366;2022-07-24T01:37:33;6.90;;;5.63;;
44476;SDS011;30180;44.788;10.366;2022-07-24T01:40:04;8.32;;;5.60;;
44476;SDS011;30180;44.788;10.366;2022-07-24T01:42:32;6.63;;;5.25;;
44476;SDS011;30180;44.788;10.366;2022-07-24T01:45:01;6.70;;;5.25;;
44476;SDS011;30180;44.788;10.366;2022-07-24T01:47:29;6.93;;;4.97;;
44476;SDS011;30180;44.788;10.366;2022-07-24T01:49:58;8.30;;;5.80;;
44476;SDS011;30180;44.788;10.366;2022-07-24T01:52:26;9.32;;;5.50;;
44476;SDS011;30180;44.788;10.366;2022-07-24T01:54:54;7.20;;;5.65;;
44476;SDS011;30180;44.788;10.366;2022-07-24T01:57:24;9.15;;;6.00;;
44476;SDS011;30180;44.788;10.366;2022-07-24T01:59:55;8.05;;;5.95;;
44476;SDS011;30180;44.788;10.366;2022-07-24T02:02:24;10.05;;;5.57;;
44476;SDS011;30180;44.788;10.366;2022-07-24T02:04:53;7.45;;;5.72;;
44476;SDS011;30180;44.788;10.366;2022-07-24T02:07:21;8.57;;;5.25;;
44476;SDS011;30180;44.788;10.366;2022-07-24T02:09:49;7.57;;;5.57;;
44476;SDS011;30180;44.788;10.366;2022-07-24T02:12:17;7.63;;;5.75;;
44476;SDS011;30180;44.788;10.366;2022-07-24T02:14:47;9.40;;;5.72;;
44476;SDS011;30180;44.788;10.366;2022-07-24T02:17:15;7.10;;;5.43;;
44476;SDS011;30180;44.788;10.366;2022-07-24T02:19:43;6.65;;;5.40;;
44476;SDS011;30180;44.788;10.366;2022-07-24T02:22:12;7.40;;;5.25;;
44476;SDS011;30180;44.788;10.366;2022-07-24T02:24:40;7.07;;;5.55;;
44476;SDS011;30180;44.788;10.366;2022-07-24T02:27:08;6.95;;;5.50;;
44476;SDS011;30180;44.788;10.366;2022-07-24T02:29:36;7.18;;;5.50;;
44476;SDS011;30180;44.788;10.366;2022-07-24T02:32:07;8.27;;;6.03;;
44476;SDS011;30180;44.788;10.366;2022-07-24T02:34:35;6.97;;;5.53;;
44476;SDS011;30180;44.788;10.366;2022-07-24T02:37:04;6.75;;;5.47;;
44476;SDS011;30180;44.788;10.366;2022-07-24T02:39:32;7.15;;;5.90;;
44476;SDS011;30180;44.788;10.366;2022-07-24T02:42:00;8.93;;;5.60;;
44476;SDS011;30180;44.788;10.366;2022-07-24T02:44:28;9.07;;;5.57;;
44476;SDS011;30180;44.788;10.366;2022-07-24T02:46:56;8.10;;;5.50;;
44476;SDS011;30180;44.788;10.366;2022-07-24T02:49:26;6.43;;;5.78;;
44476;SDS011;30180;44.788;10.366;2022-07-24T02:51:54;7.97;;;5.50;;
44476;SDS011;30180;44.788;10.366;2022-07-24T02:54:23;8.20;;;5.32;;
44476;SDS011;30180;44.788;10.366;2022-07-24T02:56:51;10.05;;;6.18;;
44476;SDS011;30180;44.788;10.366;2022-07-24T02:59:19;7.82;;;5.28;;
44476;SDS011;30180;44.788;10.366;2022-07-24T03:01:48;8.50;;;5.72;;
44476;SDS011;30180;44.788;10.366;2022-07-24T03:04:16;8.70;;;5.32;;
44476;SDS011;30180;44.788;10.366;2022-07-24T03:06:46;9.10;;;6.22;;
44476;SDS011;30180;44.788;10.366;2022-07-24T03:09:14;8.52;;;5.28;;
44476;SDS011;30180;44.788;10.366;2022-07-24T03:11:42;9.13;;;5.85;;
44476;SDS011;30180;44.788;10.366;2022-07-24T03:14:10;8.60;;;5.55;;
44476;SDS011;30180;44.788;10.366;2022-07-24T03:16:38;9.00;;;6.18;;
44476;SDS011;30180;44.788;10.366;2022-07-24T03:19:07;8.27;;;5.72;;
44476;SDS011;30180;44.788;10.366;2022-07-24T03:21:35;8.18;;;5.90;;
44476;SDS011;30180;44.788;10.366;2022-07-24T03:24:15;7.70;;;5.38;;
44476;SDS011;30180;44.788;10.366;2022-07-24T03:26:43;7.47;;;5.40;;
44476;SDS011;30180;44.788;10.366;2022-07-24T03:29:11;7.85;;;5.55;;
44476;SDS011;30180;44.788;10.366;2022-07-24T03:31:40;7.63;;;5.97;;
44476;SDS011;30180;44.788;10.366;2022-07-24T03:34:09;8.25;;;5.65;;
44476;SDS011;30180;44.788;10.366;2022-07-24T03:36:37;7.60;;;5.93;;
44476;SDS011;30180;44.788;10.366;2022-07-24T03:39:06;8.15;;;5.60;;
44476;SDS011;30180;44.788;10.366;2022-07-24T03:41:36;8.75;;;5.60;;
44476;SDS011;30180;44.788;10.366;2022-07-24T03:44:04;8.07;;;5.80;;
44476;SDS011;30180;44.788;10.366;2022-07-24T03:46:33;8.73;;;5.72;;
44476;SDS011;30180;44.788;10.366;2022-07-24T03:49:02;10.13;;;6.32;;
44476;SDS011;30180;44.788;10.366;2022-07-24T03:51:31;8.55;;;5.80;;
44476;SDS011;30180;44.788;10.366;2022-07-24T03:54:03;8.13;;;5.50;;
44476;SDS011;30180;44.788;10.366;2022-07-24T03:56:32;9.18;;;5.70;;
44476;SDS011;30180;44.788;10.366;2022-07-24T03:59:01;8.05;;;5.93;;
44476;SDS011;30180;44.788;10.366;2022-07-24T04:01:30;8.95;;;6.03;;
44476;SDS011;30180;44.788;10.366;2022-07-24T04:03:59;9.68;;;6.18;;
44476;SDS011;30180;44.788;10.366;2022-07-24T04:06:31;9.15;;;6.10;;
44476;SDS011;30180;44.788;10.366;2022-07-24T04:09:00;9.77;;;6.13;;
44476;SDS011;30180;44.788;10.366;2022-07-24T04:11:30;9.25;;;6.30;;
44476;SDS011;30180;44.788;10.366;2022-07-24T04:13:59;9.23;;;6.22;;
44476;SDS011;30180;44.788;10.366;2022-07-24T04:16:28;7.05;;;5.63;;
44476;SDS011;30180;44.788;10.366;2022-07-24T04:18:57;9.47;;;5.50;;
44476;SDS011;30180;44.788;10.366;2022-07-24T04:21:32;11.88;;;6.43;;
44476;SDS011;30180;44.788;10.366;2022-07-24T04:24:00;11.00;;;6.60;;
44476;SDS011;30180;44.788;10.366;2022-07-24T04:26:28;9.15;;;6.07;;
44476;SDS011;30180;44.788;10.366;2022-07-24T04:28:57;9.85;;;6.40;;
44476;SDS011;30180;44.788;10.366;2022-07-24T04:31:25;8.85;;;5.85;;
44476;SDS011;30180;44.788;10.366;2022-07-24T04:33:57;8.98;;;6.43;;
44476;SDS011;30180;44.788;10.366;2022-07-24T04:36:25;10.20;;;5.70;;
44476;SDS011;30180;44.788;10.366;2022-07-24T04:38:53;10.02;;;6.35;;
44476;SDS011;30180;44.788;10.366;2022-07-24T04:41:22;9.13;;;6.32;;
44476;SDS011;30180;44.788;10.366;2022-07-24T04:43:50;10.30;;;6.10;;
44476;SDS011;30180;44.788;10.366;2022-07-24T04:46:18;11.10;;;6.70;;
44476;SDS011;30180;44.788;10.366;2022-07-24T04:48:47;13.18;;;6.15;;
44476;SDS011;30180;44.788;10.366;2022-07-24T04:51:16;10.00;;;6.45;;
44476;SDS011;30180;44.788;10.366;2022-07-24T04:53:45;9.23;;;6.25;;
44476;SDS011;30180;44.788;10.366;2022-07-24T04:56:13;8.32;;;6.22;;
44476;SDS011;30180;44.788;10.366;2022-07-24T04:58:41;9.68;;;6.60;;
44476;SDS011;30180;44.788;10.366;2022-07-24T05:01:10;11.13;;;7.13;;
44476;SDS011;30180;44.788;10.366;2022-07-24T05:03:39;8.20;;;6.32;;
44476;SDS011;30180;44.788;10.366;2022-07-24T05:06:07;11.00;;;6.50;;
44476;SDS011;30180;44.788;10.366;2022-07-24T05:08:36;8.15;;;6.43;;
44476;SDS011;30180;44.788;10.366;2022-07-24T05:11:05;11.13;;;6.90;;
44476;SDS011;30180;44.788;10.366;2022-07-24T05:13:33;12.00;;;6.60;;
44476;SDS011;30180;44.788;10.366;2022-07-24T05:16:01;8.77;;;6.32;;
44476;SDS011;30180;44.788;10.366;2022-07-24T05:18:30;11.90;;;6.35;;
44476;SDS011;30180;44.788;10.366;2022-07-24T05:20:58;9.40;;;7.05;;
44476;SDS011;30180;44.788;10.366;2022-07-24T05:23:26;10.32;;;7.20;;
44476;SDS011;30180;44.788;10.366;2022-07-24T05:25:56;10.27;;;6.55;;
44476;SDS011;30180;44.788;10.366;2022-07-24T05:28:24;9.82;;;6.60;;
44476;SDS011;30180;44.788;10.366;2022-07-24T05:30:52;9.98;;;6.45;;
44476;SDS011;30180;44.788;10.366;2022-07-24T05:33:21;9.43;;;6.95;;
44476;SDS011;30180;44.788;10.366;2022-07-24T05:35:49;8.90;;;6.43;;
44476;SDS011;30180;44.788;10.366;2022-07-24T05:38:17;10.48;;;6.88;;
44476;SDS011;30180;44.788;10.366;2022-07-24T05:40:45;10.20;;;6.88;;
44476;SDS011;30180;44.788;10.366;2022-07-24T05:43:15;8.10;;;6.43;;
44476;SDS011;30180;44.788;10.366;2022-07-24T05:45:43;9.80;;;6.63;;
44476;SDS011;30180;44.788;10.366;2022-07-24T05:48:12;10.00;;;7.07;;
44476;SDS011;30180;44.788;10.366;2022-07-24T05:50:40;13.20;;;7.15;;
44476;SDS011;30180;44.788;10.366;2022-07-24T05:53:09;10.63;;;6.63;;
44476;SDS011;30180;44.788;10.366;2022-07-24T05:55:37;9.20;;;6.75;;
44476;SDS011;30180;44.788;10.366;2022-07-24T05:58:05;10.50;;;7.20;;
44476;SDS011;30180;44.788;10.366;2022-07-24T06:00:35;11.20;;;7.00;;
44476;SDS011;30180;44.788;10.366;2022-07-24T06:03:03;10.23;;;7.25;;
44476;SDS011;30180;44.788;10.366;2022-07-24T06:05:32;11.02;;;7.05;;
44476;SDS011;30180;44.788;10.366;2022-07-24T06:08:00;12.80;;;7.13;;
44476;SDS011;30180;44.788;10.366;2022-07-24T06:10:28;9.35;;;7.28;;
44476;SDS011;30180;44.788;10.366;2022-07-24T06:12:58;10.13;;;6.82;;
44476;SDS011;30180;44.788;10.366;2022-07-24T06:15:26;11.13;;;6.95;;
44476;SDS011;30180;44.788;10.366;2022-07-24T06:17:56;11.07;;;7.47;;
44476;SDS011;30180;44.788;10.366;2022-07-24T06:20:25;12.05;;;7.35;;
44476;SDS011;30180;44.788;10.366;2022-07-24T06:22:53;11.15;;;8.30;;
44476;SDS011;30180;44.788;10.366;2022-07-24T06:25:21;11.15;;;8.15;;
44476;SDS011;30180;44.788;10.366;2022-07-24T06:27:50;11.80;;;7.38;;
44476;SDS011;30180;44.788;10.366;2022-07-24T06:30:20;10.80;;;8.10;;
44476;SDS011;30180;44.788;10.366;2022-07-24T06:32:51;11.33;;;8.20;;
44476;SDS011;30180;44.788;10.366;2022-07-24T06:35:22;12.20;;;7.82;;
44476;SDS011;30180;44.788;10.366;2022-07-24T06:37:51;10.60;;;7.40;;
44476;SDS011;30180;44.788;10.366;2022-07-24T06:40:20;13.20;;;8.68;;
44476;SDS011;30180;44.788;10.366;2022-07-24T06:42:48;10.13;;;7.75;;
44476;SDS011;30180;44.788;10.366;2022-07-24T06:45:17;12.38;;;8.90;;
44476;SDS011;30180;44.788;10.366;2022-07-24T06:47:45;13.68;;;7.55;;
44476;SDS011;30180;44.788;10.366;2022-07-24T06:50:14;13.05;;;7.43;;
44476;SDS011;30180;44.788;10.366;2022-07-24T06:52:43;10.32;;;8.38;;
44476;SDS011;30180;44.788;10.366;2022-07-24T06:55:12;15.02;;;7.90;;
44476;SDS011;30180;44.788;10.366;2022-07-24T06:57:41;9.25;;;7.45;;
44476;SDS011;30180;44.788;10.366;2022-07-24T07:00:09;12.43;;;8.40;;
44476;SDS011;30180;44.788;10.366;2022-07-24T07:02:38;8.75;;;7.25;;
44476;SDS011;30180;44.788;10.366;2022-07-24T07:05:07;9.85;;;7.63;;
44476;SDS011;30180;44.788;10.366;2022-07-24T07:07:36;9.82;;;7.70;;
44476;SDS011;30180;44.788;10.366;2022-07-24T07:10:07;12.77;;;7.97;;
44476;SDS011;30180;44.788;10.366;2022-07-24T07:17:36;11.10;;;9.35;;
44476;SDS011;30180;44.788;10.366;2022-07-24T07:20:06;11.85;;;8.55;;
44476;SDS011;30180;44.788;10.366;2022-07-24T07:22:36;12.00;;;9.02;;
44476;SDS011;30180;44.788;10.366;2022-07-24T07:25:05;12.88;;;9.73;;
44476;SDS011;30180;44.788;10.366;2022-07-24T07:27:35;11.80;;;9.50;;
44476;SDS011;30180;44.788;10.366;2022-07-24T07:30:05;13.73;;;8.77;;
44476;SDS011;30180;44.788;10.366;2022-07-24T07:32:36;12.13;;;9.63;;
44476;SDS011;30180;44.788;10.366;2022-07-24T07:35:05;13.00;;;10.25;;
44476;SDS011;30180;44.788;10.366;2022-07-24T07:37:46;16.50;;;11.00;;
44476;SDS011;30180;44.788;10.366;2022-07-24T07:40:17;14.88;;;10.90;;
44476;SDS011;30180;44.788;10.366;2022-07-24T07:42:45;12.65;;;10.23;;
44476;SDS011;30180;44.788;10.366;2022-07-24T07:45:13;15.43;;;10.73;;
44476;SDS011;30180;44.788;10.366;2022-07-24T07:47:42;14.95;;;11.43;;
44476;SDS011;30180;44.788;10.366;2022-07-24T07:50:10;13.77;;;9.85;;
44476;SDS011;30180;44.788;10.366;2022-07-24T07:52:39;16.13;;;11.38;;
44476;SDS011;30180;44.788;10.366;2022-07-24T07:55:07;14.70;;;11.50;;
44476;SDS011;30180;44.788;10.366;2022-07-24T07:57:37;12.93;;;10.68;;
44476;SDS011;30180;44.788;10.366;2022-07-24T08:00:27;14.15;;;11.13;;
44476;SDS011;30180;44.788;10.366;2022-07-24T08:02:55;15.45;;;11.20;;
44476;SDS011;30180;44.788;10.366;2022-07-24T08:05:24;17.45;;;11.02;;
44476;SDS011;30180;44.788;10.366;2022-07-24T08:07:52;16.83;;;11.77;;
44476;SDS011;30180;44.788;10.366;2022-07-24T08:10:20;14.18;;;10.35;;
44476;SDS011;30180;44.788;10.366;2022-07-24T08:12:50;15.43;;;11.75;;
44476;SDS011;30180;44.788;10.366;2022-07-24T08:15:19;16.55;;;9.63;;
44476;SDS011;30180;44.788;10.366;2022-07-24T08:17:50;14.95;;;9.10;;
44476;SDS011;30180;44.788;10.366;2022-07-24T08:20:20;13.93;;;10.90;;
44476;SDS011;30180;44.788;10.366;2022-07-24T08:22:48;14.60;;;10.40;;
44476;SDS011;30180;44.788;10.366;2022-07-24T08:25:17;14.00;;;9.52;;
44476;SDS011;30180;44.788;10.366;2022-07-24T08:27:46;14.68;;;9.77;;
44476;SDS011;30180;44.788;10.366;2022-07-24T08:30:16;13.05;;;9.63;;
44476;SDS011;30180;44.788;10.366;2022-07-24T08:32:44;11.93;;;9.83;;
44476;SDS011;30180;44.788;10.366;2022-07-24T08:35:13;11.35;;;9.98;;
44476;SDS011;30180;44.788;10.366;2022-07-24T08:37:41;19.20;;;10.05;;
44476;SDS011;30180;44.788;10.366;2022-07-24T08:40:10;14.70;;;10.40;;
44476;SDS011;30180;44.788;10.366;2022-07-24T08:42:40;17.13;;;10.50;;
44476;SDS011;30180;44.788;10.366;2022-07-24T08:45:08;12.73;;;10.00;;
44476;SDS011;30180;44.788;10.366;2022-07-24T08:47:39;15.40;;;10.55;;
44476;SDS011;30180;44.788;10.366;2022-07-24T08:50:09;13.90;;;10.07;;
44476;SDS011;30180;44.788;10.366;2022-07-24T08:52:37;12.40;;;10.13;;
44476;SDS011;30180;44.788;10.366;2022-07-24T08:55:11;12.60;;;10.07;;
44476;SDS011;30180;44.788;10.366;2022-07-24T08:57:39;15.52;;;11.65;;
44476;SDS011;30180;44.788;10.366;2022-07-24T09:00:07;14.43;;;11.65;;
44476;SDS011;30180;44.788;10.366;2022-07-24T09:02:40;14.93;;;11.05;;
44476;SDS011;30180;44.788;10.366;2022-07-24T09:05:08;15.25;;;11.85;;
44476;SDS011;30180;44.788;10.366;2022-07-24T09:07:37;13.63;;;11.05;;
44476;SDS011;30180;44.788;10.366;2022-07-24T09:10:06;14.43;;;11.15;;
44476;SDS011;30180;44.788;10.366;2022-07-24T09:12:36;20.00;;;13.10;;
44476;SDS011;30180;44.788;10.366;2022-07-24T09:17:49;16.20;;;11.68;;
44476;SDS011;30180;44.788;10.366;2022-07-24T09:20:20;19.20;;;11.00;;
44476;SDS011;30180;44.788;10.366;2022-07-24T09:22:49;20.50;;;13.43;;
44476;SDS011;30180;44.788;10.366;2022-07-24T09:25:18;17.65;;;12.45;;
44476;SDS011;30180;44.788;10.366;2022-07-24T09:27:48;16.33;;;11.30;;
44476;SDS011;30180;44.788;10.366;2022-07-24T09:30:23;14.23;;;11.57;;
44476;SDS011;30180;44.788;10.366;2022-07-24T09:32:56;15.32;;;11.82;;
44476;SDS011;30180;44.788;10.366;2022-07-24T09:35:29;21.10;;;11.07;;
44476;SDS011;30180;44.788;10.366;2022-07-24T09:37:59;18.63;;;11.52;;
44476;SDS011;30180;44.788;10.366;2022-07-24T09:40:30;30.20;;;11.82;;
44476;SDS011;30180;44.788;10.366;2022-07-24T09:43:16;20.35;;;11.38;;
44476;SDS011;30180;44.788;10.366;2022-07-24T09:45:56;21.45;;;11.10;;
44476;SDS011;30180;44.788;10.366;2022-07-24T09:48:29;26.48;;;11.65;;
44476;SDS011;30180;44.788;10.366;2022-07-24T09:50:59;28.13;;;11.90;;
44476;SDS011;30180;44.788;10.366;2022-07-24T09:53:29;27.17;;;11.32;;
44476;SDS011;30180;44.788;10.366;2022-07-24T09:56:07;29.70;;;11.63;;
44476;SDS011;30180;44.788;10.366;2022-07-24T09:58:37;24.27;;;11.00;;
44476;SDS011;30180;44.788;10.366;2022-07-24T10:01:07;23.95;;;11.70;;
44476;SDS011;30180;44.788;10.366;2022-07-24T10:03:40;24.60;;;11.43;;
44476;SDS011;30180;44.788;10.366;2022-07-24T10:06:10;31.25;;;10.82;;
44476;SDS011;30180;44.788;10.366;2022-07-24T10:08:41;26.40;;;10.55;;
44476;SDS011;30180;44.788;10.366;2022-07-24T10:11:11;31.65;;;12.18;;
44476;SDS011;30180;44.788;10.366;2022-07-24T10:13:40;18.00;;;11.02;;
44476;SDS011;30180;44.788;10.366;2022-07-24T10:16:25;24.10;;;10.70;;
44476;SDS011;30180;44.788;10.366;2022-07-24T10:18:59;31.30;;;11.02;;
44476;SDS011;30180;44.788;10.366;2022-07-24T10:21:31;19.80;;;11.70;;
44476;SDS011;30180;44.788;10.366;2022-07-24T10:27:04;24.30;;;11.68;;
44476;SDS011;30180;44.788;10.366;2022-07-24T10:29:37;21.55;;;11.40;;
44476;SDS011;30180;44.788;10.366;2022-07-24T10:32:05;25.67;;;11.63;;
44476;SDS011;30180;44.788;10.366;2022-07-24T10:34:38;23.52;;;11.95;;
44476;SDS011;30180;44.788;10.366;2022-07-24T10:37:18;26.27;;;11.45;;
44476;SDS011;30180;44.788;10.366;2022-07-24T10:39:54;23.75;;;11.63;;
44476;SDS011;30180;44.788;10.366;2022-07-24T10:42:30;21.10;;;11.32;;
44476;SDS011;30180;44.788;10.366;2022-07-24T10:47:43;28.90;;;11.20;;
44476;SDS011;30180;44.788;10.366;2022-07-24T10:50:14;28.67;;;11.43;;
44476;SDS011;30180;44.788;10.366;2022-07-24T10:52:42;26.23;;;11.07;;
44476;SDS011;30180;44.788;10.366;2022-07-24T10:55:24;22.63;;;11.07;;
44476;SDS011;30180;44.788;10.366;2022-07-24T10:58:02;18.77;;;10.68;;
44476;SDS011;30180;44.788;10.366;2022-07-24T11:00:40;19.33;;;11.05;;
44476;SDS011;30180;44.788;10.366;2022-07-24T11:03:17;17.80;;;10.80;;
44476;SDS011;30180;44.788;10.366;2022-07-24T11:08:42;20.77;;;11.65;;
44476;SDS011;30180;44.788;10.366;2022-07-24T11:11:16;24.95;;;11.38;;
44476;SDS011;30180;44.788;10.366;2022-07-24T11:13:47;17.50;;;11.00;;
44476;SDS011;30180;44.788;10.366;2022-07-24T11:16:27;21.67;;;10.77;;
44476;SDS011;30180;44.788;10.366;2022-07-24T11:22:08;19.42;;;10.82;;
44476;SDS011;30180;44.788;10.366;2022-07-24T11:27:40;27.02;;;10.52;;
44476;SDS011;30180;44.788;10.366;2022-07-24T11:30:13;15.55;;;10.43;;
44476;SDS011;30180;44.788;10.366;2022-07-24T11:32:42;18.90;;;11.30;;
44476;SDS011;30180;44.788;10.366;2022-07-24T11:35:11;18.50;;;10.82;;
44476;SDS011;30180;44.788;10.366;2022-07-24T11:37:40;14.20;;;10.40;;
44476;SDS011;30180;44.788;10.366;2022-07-24T11:40:14;17.27;;;10.83;;
44476;SDS011;30180;44.788;10.366;2022-07-24T11:42:43;16.15;;;10.30;;
44476;SDS011;30180;44.788;10.366;2022-07-24T11:45:11;16.45;;;10.68;;
44476;SDS011;30180;44.788;10.366;2022-07-24T11:47:40;18.77;;;10.93;;
44476;SDS011;30180;44.788;10.366;2022-07-24T11:50:08;16.50;;;9.82;;
44476;SDS011;30180;44.788;10.366;2022-07-24T11:52:38;15.45;;;9.70;;
44476;SDS011;30180;44.788;10.366;2022-07-24T11:55:08;18.98;;;10.38;;
44476;SDS011;30180;44.788;10.366;2022-07-24T11:57:44;16.77;;;10.48;;
44476;SDS011;30180;44.788;10.366;2022-07-24T12:00:34;17.83;;;10.00;;
44476;SDS011;30180;44.788;10.366;2022-07-24T12:03:02;18.02;;;10.45;;
44476;SDS011;30180;44.788;10.366;2022-07-24T12:05:34;15.60;;;9.85;;
44476;SDS011;30180;44.788;10.366;2022-07-24T12:08:15;16.58;;;9.52;;
44476;SDS011;30180;44.788;10.366;2022-07-24T12:13:16;15.82;;;9.75;;
44476;SDS011;30180;44.788;10.366;2022-07-24T12:15:45;14.93;;;9.75;;
44476;SDS011;30180;44.788;10.366;2022-07-24T12:18:13;15.75;;;9.52;;
44476;SDS011;30180;44.788;10.366;2022-07-24T12:20:47;14.50;;;9.63;;
44476;SDS011;30180;44.788;10.366;2022-07-24T12:23:16;13.07;;;9.63;;
44476;SDS011;30180;44.788;10.366;2022-07-24T12:25:46;16.10;;;9.20;;
44476;SDS011;30180;44.788;10.366;2022-07-24T12:28:15;12.65;;;9.68;;
44476;SDS011;30180;44.788;10.366;2022-07-24T12:30:46;13.93;;;9.75;;
44476;SDS011;30180;44.788;10.366;2022-07-24T12:33:19;15.80;;;9.88;;
44476;SDS011;30180;44.788;10.366;2022-07-24T12:35:53;16.90;;;9.70;;
44476;SDS011;30180;44.788;10.366;2022-07-24T12:38:23;14.80;;;9.50;;
44476;SDS011;30180;44.788;10.366;2022-07-24T12:41:00;15.60;;;9.37;;
44476;SDS011;30180;44.788;10.366;2022-07-24T12:43:31;13.50;;;9.45;;
44476;SDS011;30180;44.788;10.366;2022-07-24T12:46:07;12.10;;;8.90;;
44476;SDS011;30180;44.788;10.366;2022-07-24T12:48:36;13.65;;;9.25;;
44476;SDS011;30180;44.788;10.366;2022-07-24T12:51:07;13.43;;;9.13;;
44476;SDS011;30180;44.788;10.366;2022-07-24T12:53:38;11.30;;;9.10;;
44476;SDS011;30180;44.788;10.366;2022-07-24T12:58:49;16.80;;;9.10;;
44476;SDS011;30180;44.788;10.366;2022-07-24T13:01:18;13.20;;;9.02;;
44476;SDS011;30180;44.788;10.366;2022-07-24T13:03:51;14.80;;;8.75;;
44476;SDS011;30180;44.788;10.366;2022-07-24T13:06:31;12.52;;;9.18;;
44476;SDS011;30180;44.788;10.366;2022-07-24T13:09:04;14.80;;;8.68;;
44476;SDS011;30180;44.788;10.366;2022-07-24T13:11:34;12.40;;;9.20;;
44476;SDS011;30180;44.788;10.366;2022-07-24T13:14:05;12.13;;;8.93;;
44476;SDS011;30180;44.788;10.366;2022-07-24T13:16:35;12.13;;;9.13;;
44476;SDS011;30180;44.788;10.366;2022-07-24T13:19:05;13.55;;;8.68;;
44476;SDS011;30180;44.788;10.366;2022-07-24T13:21:34;15.25;;;8.55;;
44476;SDS011;30180;44.788;10.366;2022-07-24T13:24:04;14.88;;;9.13;;
44476;SDS011;30180;44.788;10.366;2022-07-24T13:26:34;18.75;;;8.57;;
44476;SDS011;30180;44.788;10.366;2022-07-24T13:29:05;15.38;;;9.45;;
44476;SDS011;30180;44.788;10.366;2022-07-24T13:31:33;13.10;;;9.18;;
44476;SDS011;30180;44.788;10.366;2022-07-24T13:34:02;12.75;;;8.70;;
44476;SDS011;30180;44.788;10.366;2022-07-24T13:36:32;12.23;;;8.37;;
44476;SDS011;30180;44.788;10.366;2022-07-24T13:39:02;13.00;;;9.35;;
44476;SDS011;30180;44.788;10.366;2022-07-24T13:41:31;10.13;;;8.48;;
44476;SDS011;30180;44.788;10.366;2022-07-24T13:44:00;12.98;;;8.23;;
44476;SDS011;30180;44.788;10.366;2022-07-24T13:46:31;11.43;;;9.55;;
44476;SDS011;30180;44.788;10.366;2022-07-24T13:49:01;13.02;;;9.25;;
44476;SDS011;30180;44.788;10.366;2022-07-24T13:51:32;13.93;;;8.82;;
44476;SDS011;30180;44.788;10.366;2022-07-24T13:54:01;19.25;;;9.40;;
44476;SDS011;30180;44.788;10.366;2022-07-24T13:56:30;10.50;;;8.60;;
44476;SDS011;30180;44.788;10.366;2022-07-24T13:58:59;12.75;;;9.13;;
44476;SDS011;30180;44.788;10.366;2022-07-24T14:01:30;13.85;;;9.25;;
44476;SDS011;30180;44.788;10.366;2022-07-24T14:04:01;15.30;;;9.20;;
44476;SDS011;30180;44.788;10.366;2022-07-24T14:06:50;12.45;;;9.60;;
44476;SDS011;30180;44.788;10.366;2022-07-24T14:09:19;11.85;;;9.07;;
44476;SDS011;30180;44.788;10.366;2022-07-24T14:11:47;13.02;;;9.35;;
44476;SDS011;30180;44.788;10.366;2022-07-24T14:14:15;13.38;;;8.88;;
44476;SDS011;30180;44.788;10.366;2022-07-24T14:16:45;12.18;;;9.52;;
44476;SDS011;30180;44.788;10.366;2022-07-24T14:19:14;10.93;;;8.68;;
44476;SDS011;30180;44.788;10.366;2022-07-24T14:21:42;11.07;;;8.90;;
44476;SDS011;30180;44.788;10.366;2022-07-24T14:24:15;12.65;;;8.85;;
44476;SDS011;30180;44.788;10.366;2022-07-24T14:26:45;11.27;;;9.02;;
44476;SDS011;30180;44.788;10.366;2022-07-24T14:29:14;12.93;;;8.65;;
44476;SDS011;30180;44.788;10.366;2022-07-24T14:31:42;11.68;;;9.32;;
44476;SDS011;30180;44.788;10.366;2022-07-24T14:34:12;13.82;;;8.85;;
44476;SDS011;30180;44.788;10.366;2022-07-24T14:36:41;12.07;;;8.45;;
44476;SDS011;30180;44.788;10.366;2022-07-24T14:39:09;10.77;;;9.25;;
44476;SDS011;30180;44.788;10.366;2022-07-24T14:41:38;10.50;;;8.63;;
44476;SDS011;30180;44.788;10.366;2022-07-24T14:44:06;13.18;;;8.70;;
44476;SDS011;30180;44.788;10.366;2022-07-24T14:46:36;13.05;;;9.43;;
44476;SDS011;30180;44.788;10.366;2022-07-24T14:49:06;12.32;;;8.85;;
44476;SDS011;30180;44.788;10.366;2022-07-24T14:51:36;12.70;;;9.20;;
44476;SDS011;30180;44.788;10.366;2022-07-24T14:54:05;18.23;;;9.43;;
44476;SDS011;30180;44.788;10.366;2022-07-24T14:56:35;16.67;;;9.40;;
44476;SDS011;30180;44.788;10.366;2022-07-24T14:59:03;21.27;;;9.35;;
44476;SDS011;30180;44.788;10.366;2022-07-24T15:01:31;22.83;;;9.98;;
44476;SDS011;30180;44.788;10.366;2022-07-24T15:04:04;15.25;;;9.70;;
44476;SDS011;30180;44.788;10.366;2022-07-24T15:06:35;22.63;;;10.37;;